Time;durP1;ratioP1;P1;durP2;ratioP2;P2;SDS_P1;SDS_P2;PMS_P1;PMS_P2;Temp;Humidity;BMP_temperature;BMP_pressure;BME280_temperature;BME280_humidity;BME280_pressure;Samples;Min_cycle;Max_cycle;Signal;HPM_P1;HPM_P2
2022/12/12 00:00:12;;;;;;;29.37;13.43;;;;;;;-1.63;79.44;99853.91;1717446;81;20930;-76
2022/12/12 00:02:58;;;;;;;24.23;13.10;;;;;;;-1.62;79.45;99855.62;1717983;81;20953;-76
2022/12/12 00:05:43;;;;;;;22.80;13.78;;;;;;;-1.63;79.45;99854.32;1716756;81;21327;-76
2022/12/12 00:08:28;;;;;;;22.20;13.03;;;;;;;-1.64;79.45;99848.39;1719022;80;21002;-76
2022/12/12 00:11:13;;;;;;;26.05;12.37;;;;;;;-1.64;79.48;99850.08;1717745;82;21033;-76
2022/12/12 00:13:58;;;;;;;20.23;12.43;;;;;;;-1.65;79.46;99850.89;1717460;82;20944;-76
2022/12/12 00:16:42;;;;;;;23.95;12.30;;;;;;;-1.67;79.49;99842.84;1717324;81;20933;-77
2022/12/12 00:19:27;;;;;;;25.45;13.28;;;;;;;-1.69;79.45;99847.03;1719090;80;20957;-76
2022/12/12 00:22:12;;;;;;;23.32;12.40;;;;;;;-1.71;79.47;99849.95;1716773;82;20954;-77
2022/12/12 00:24:58;;;;;;;24.37;11.67;;;;;;;-1.75;79.49;99844.37;1719084;81;20893;-76
2022/12/12 00:27:43;;;;;;;23.32;13.25;;;;;;;-1.77;79.52;99844.75;1717075;81;20906;-77
2022/12/12 00:30:28;;;;;;;22.30;13.10;;;;;;;-1.77;79.54;99838.83;1719164;82;20897;-76
2022/12/12 00:33:13;;;;;;;23.10;12.60;;;;;;;-1.78;79.57;99838.38;1718720;81;20890;-76
2022/12/12 00:35:58;;;;;;;24.57;13.08;;;;;;;-1.80;79.60;99834.55;1719038;82;21899;-76
2022/12/12 00:38:43;;;;;;;21.57;12.23;;;;;;;-1.77;79.60;99835.02;1718876;80;21462;-76
2022/12/12 00:41:28;;;;;;;21.02;12.33;;;;;;;-1.77;79.59;99836.29;1719543;82;20910;-77
2022/12/12 00:44:13;;;;;;;21.10;11.75;;;;;;;-1.76;79.64;99836.73;1716763;82;20997;-77
2022/12/12 00:46:58;;;;;;;23.67;12.03;;;;;;;-1.75;79.65;99839.30;1716209;81;20929;-76
2022/12/12 00:49:43;;;;;;;19.80;12.10;;;;;;;-1.71;79.70;99837.27;1718192;82;21541;-76
2022/12/12 00:52:28;;;;;;;22.55;11.57;;;;;;;-1.68;79.72;99844.94;1716978;81;21305;-76
2022/12/12 00:55:13;;;;;;;19.32;11.03;;;;;;;-1.64;79.76;99848.39;1717912;82;20910;-76
2022/12/12 00:57:58;;;;;;;24.30;12.18;;;;;;;-1.59;79.79;99849.75;1718303;81;21462;-76
2022/12/12 01:00:43;;;;;;;21.60;12.25;;;;;;;-1.56;79.80;99844.75;1719676;81;21096;-76
2022/12/12 01:03:28;;;;;;;16.95;11.60;;;;;;;-1.53;79.83;99847.31;1717890;80;20941;-76
2022/12/12 01:06:14;;;;;;;19.20;11.50;;;;;;;-1.50;79.78;99848.64;1723153;81;21474;-77
2022/12/12 01:08:59;;;;;;;19.48;12.65;;;;;;;-1.47;79.85;99855.90;1715460;81;21014;-76
2022/12/12 01:11:43;;;;;;;17.90;11.05;;;;;;;-1.44;79.89;99853.84;1719454;80;21352;-76
2022/12/12 01:14:29;;;;;;;16.42;10.82;;;;;;;-1.39;79.91;99850.98;1718252;81;20914;-76
2022/12/12 01:17:13;;;;;;;24.27;12.55;;;;;;;-1.36;79.89;99852.31;1718440;81;20890;-76
2022/12/12 01:19:58;;;;;;;19.40;11.93;;;;;;;-1.34;79.92;99843.91;1718485;81;20953;-76
2022/12/12 01:22:43;;;;;;;22.97;10.87;;;;;;;-1.29;79.92;99845.67;1717848;81;21565;-76
2022/12/12 01:25:29;;;;;;;17.82;11.05;;;;;;;-1.26;80.00;99850.39;1716692;81;20949;-76
2022/12/12 01:28:14;;;;;;;21.12;11.55;;;;;;;-1.23;79.98;99836.92;1718908;81;20906;-76
2022/12/12 01:30:59;;;;;;;17.75;11.18;;;;;;;-1.21;80.02;99835.27;1720498;82;21367;-76
2022/12/12 01:33:44;;;;;;;15.40;10.77;;;;;;;-1.19;80.04;99836.15;1720300;81;21696;-76
2022/12/12 01:36:29;;;;;;;18.85;11.88;;;;;;;-1.14;80.06;99838.36;1719745;81;20914;-76
2022/12/12 01:39:14;;;;;;;18.55;8.33;;;;;;;-1.12;80.09;99845.17;1717907;81;21335;-76
2022/12/12 01:41:59;;;;;;;22.37;10.78;;;;;;;-1.09;80.13;99837.62;1719073;81;21437;-76
2022/12/12 01:44:51;;;;;;;15.60;10.13;;;;;;;-1.04;80.12;99845.31;1716412;82;20933;-76
2022/12/12 01:47:35;;;;;;;17.87;9.80;;;;;;;-1.01;80.12;99841.12;1720931;81;20949;-76
2022/12/12 01:50:21;;;;;;;12.35;9.25;;;;;;;-0.97;80.16;99843.30;1717593;80;21407;-76
2022/12/12 01:53:06;;;;;;;15.60;10.25;;;;;;;-0.94;80.18;99847.57;1717906;82;20906;-76
2022/12/12 01:55:51;;;;;;;14.90;9.70;;;;;;;-0.92;80.14;99848.04;1717853;81;20972;-77
2022/12/12 01:58:35;;;;;;;17.37;10.10;;;;;;;-0.90;80.19;99844.27;1721525;80;21560;-76
2022/12/12 02:01:22;;;;;;;16.37;9.85;;;;;;;-0.89;80.20;99840.48;1727882;80;21330;-77
2022/12/12 02:04:08;;;;;;;13.78;9.43;;;;;;;-0.88;80.24;99839.66;1728029;80;20945;-76
2022/12/12 02:06:56;;;;;;;15.40;9.38;;;;;;;-0.86;80.23;99836.73;1728087;80;20982;-76
2022/12/12 02:09:41;;;;;;;16.73;10.08;;;;;;;-0.83;80.26;99838.05;1728618;80;20979;-77
2022/12/12 02:12:26;;;;;;;16.07;9.53;;;;;;;-0.80;80.30;99840.64;1729428;80;20917;-76
2022/12/12 02:15:12;;;;;;;16.80;9.98;;;;;;;-0.77;80.32;99838.57;1727514;80;21417;-76
2022/12/12 02:18:17;;;;;;;14.00;8.40;;;;;;;-0.76;80.32;99832.25;1728412;80;20897;-76
2022/12/12 02:21:22;;;;;;;14.20;9.35;;;;;;;-0.74;80.35;99833.55;1727350;80;20893;-77
2022/12/12 02:24:33;;;;;;;13.53;9.35;;;;;;;-0.72;80.37;99830.20;1727519;80;21575;-76
2022/12/12 02:27:27;;;;;;;10.98;8.33;;;;;;;-0.70;80.37;99835.30;1727451;80;20949;-76
2022/12/12 02:31:00;;;;;;;13.68;8.53;;;;;;;-0.68;80.37;99839.58;1730162;80;20925;-76
2022/12/12 02:34:02;;;;;;;14.43;9.30;;;;;;;-0.67;80.38;99832.41;1725206;80;20929;-75
2022/12/12 02:37:10;;;;;;;13.18;8.43;;;;;;;-0.66;80.41;99834.53;1727237;80;20893;-77
2022/12/12 02:40:21;;;;;;;14.75;8.63;;;;;;;-0.65;80.42;99828.63;1726873;80;20913;-76
2022/12/12 02:43:20;;;;;;;15.40;8.50;;;;;;;-0.63;80.46;99828.23;1727709;80;20937;-76
2022/12/12 02:46:19;;;;;;;14.13;8.53;;;;;;;-0.62;80.48;99826.55;1728529;80;20957;-77
2022/12/12 02:49:20;;;;;;;16.00;9.23;;;;;;;-0.62;80.48;99822.73;1715475;80;21589;-76
2022/12/12 02:52:08;;;;;;;13.62;8.78;;;;;;;-0.60;80.49;99823.63;1707197;82;21367;-76
2022/12/12 02:54:53;;;;;;;13.15;8.63;;;;;;;-0.59;80.53;99821.52;1700744;80;21882;-76
2022/12/12 02:57:40;;;;;;;12.03;8.58;;;;;;;-0.58;80.53;99821.96;1726803;80;21387;-77
2022/12/12 03:00:25;;;;;;;14.55;8.45;;;;;;;-0.58;80.54;99819.01;1728758;80;20885;-77
2022/12/12 03:10:49;;;;;;;11.75;8.05;;;;;;;-0.55;80.59;99832.16;1727766;80;21434;-77
2022/12/12 03:13:57;;;;;;;15.15;8.65;;;;;;;-0.54;80.64;99823.30;1726798;80;20882;-77
2022/12/12 03:17:05;;;;;;;11.35;7.40;;;;;;;-0.51;80.66;99814.44;1727273;80;20889;-77
2022/12/12 03:20:01;;;;;;;11.00;7.70;;;;;;;-0.51;80.65;99809.77;1725501;80;21964;-76
2022/12/12 03:23:06;;;;;;;10.90;7.33;;;;;;;-0.49;80.69;99806.42;1728406;80;21541;-77
2022/12/12 03:26:01;;;;;;;12.50;7.87;;;;;;;-0.47;80.68;99809.84;1726180;80;21507;-77
2022/12/12 03:28:55;;;;;;;10.75;6.80;;;;;;;-0.45;80.69;99803.10;1726604;80;21540;-77
2022/12/12 03:31:44;;;;;;;11.45;7.80;;;;;;;-0.46;80.66;99806.47;1728500;80;20905;-76
2022/12/12 03:34:46;;;;;;;11.35;8.05;;;;;;;-0.45;80.70;99803.10;1730070;80;21004;-77
2022/12/12 03:37:34;;;;;;;13.55;7.95;;;;;;;-0.44;80.74;99800.15;1714172;81;21561;-77
2022/12/12 03:40:30;;;;;;;10.98;7.70;;;;;;;-0.43;80.73;99808.20;1727161;80;20885;-77
2022/12/12 03:43:19;;;;;;;11.30;7.37;;;;;;;-0.41;80.76;99811.63;1726515;80;21406;-76
2022/12/12 03:46:12;;;;;;;11.70;7.58;;;;;;;-0.41;80.79;99808.66;1644036;85;20928;-76
2022/12/12 03:49:11;;;;;;;13.70;7.90;;;;;;;-0.39;80.81;99804.88;1665082;83;20946;-76
2022/12/12 03:52:07;;;;;;;12.53;8.05;;;;;;;-0.39;80.79;99808.27;1665230;83;21380;-77
2022/12/12 03:55:01;;;;;;;;;;;;;;;-0.38;80.81;99807.45;1668996;83;20933;-76
2022/12/12 03:57:54;;;;;;;10.82;6.87;;;;;;;-0.39;80.90;99800.66;1666969;83;20233;-76
2022/12/12 04:00:42;;;;;;;12.45;7.25;;;;;;;-0.38;80.87;99809.98;1669866;83;21025;-77
2022/12/12 04:03:38;;;;;;;9.88;6.33;;;;;;;-0.38;80.85;99803.63;1674426;83;21491;-77
2022/12/12 04:06:44;;;;;;;;;;;;;;;-0.37;80.87;99801.95;1677247;83;20961;-76
2022/12/12 04:12:59;;;;;;;11.35;7.35;;;;;;;-0.35;80.91;99804.09;1673246;83;21041;-77
2022/12/12 04:16:07;;;;;;;11.33;7.30;;;;;;;-0.36;80.92;99803.24;1672776;84;21021;-76
2022/12/12 04:19:06;;;;;;;10.95;7.03;;;;;;;-0.34;80.92;99804.53;1673198;84;20973;-77
2022/12/12 04:25:01;;;;;;;10.60;6.87;;;;;;;-0.34;80.93;99803.27;1658556;83;21031;-77
2022/12/12 04:27:50;;;;;;;11.57;6.87;;;;;;;-0.34;80.92;99796.91;1657103;84;21522;-77
2022/12/12 04:30:36;;;;;;;9.93;6.58;;;;;;;-0.34;80.94;99791.83;1673520;84;20957;-77
2022/12/12 04:33:25;;;;;;;7.95;6.30;;;;;;;-0.34;81.00;99796.50;1673865;83;20933;-76
2022/12/12 04:36:14;;;;;;;7.78;6.42;;;;;;;-0.34;80.98;99790.56;1674242;83;22000;-77
2022/12/12 04:39:00;;;;;;;10.58;7.22;;;;;;;-0.35;81.02;99792.25;1657919;84;20969;-76
2022/12/12 04:41:48;;;;;;;7.97;5.92;;;;;;;-0.33;81.01;99801.16;1673017;83;21069;-77
2022/12/12 04:44:36;;;;;;;7.40;6.12;;;;;;;-0.33;81.03;99798.62;1672031;84;20973;-76
2022/12/12 04:47:23;;;;;;;7.70;5.90;;;;;;;-0.32;81.03;99799.48;1674154;83;20993;-76
2022/12/12 04:50:09;;;;;;;10.05;6.55;;;;;;;-0.32;81.05;99802.87;1674534;83;20925;-77
2022/12/12 04:52:58;;;;;;;9.45;6.22;;;;;;;-0.31;81.05;99802.04;1674692;84;20917;-76
2022/12/12 04:55:46;;;;;;;10.18;6.50;;;;;;;-0.30;81.04;99800.35;1675388;83;21445;-76
2022/12/12 04:58:31;;;;;;;10.45;6.67;;;;;;;-0.30;81.08;99801.20;1674917;83;20934;-76
2022/12/12 05:01:24;;;;;;;9.60;6.12;;;;;;;-0.29;81.11;99799.52;1660103;83;21361;-76
2022/12/12 05:04:17;;;;;;;8.80;5.87;;;;;;;-0.28;81.10;99805.89;1631412;85;21010;-75
2022/12/12 05:07:13;;;;;;;9.30;6.12;;;;;;;-0.29;81.11;99802.92;1630356;85;20950;-75
2022/12/12 05:09:58;;;;;;;6.72;5.85;;;;;;;-0.27;81.15;99807.60;1630560;85;21054;-75
2022/12/12 05:12:54;;;;;;;8.23;5.87;;;;;;;-0.26;81.13;99803.37;1673783;82;20941;-75
2022/12/12 05:15:39;;;;;;;8.83;5.78;;;;;;;-0.27;81.15;99803.80;1677154;82;20989;-75
2022/12/12 05:18:24;;;;;;;9.75;7.10;;;;;;;-0.27;81.15;99802.52;1675448;83;20974;-76
2022/12/12 05:21:08;;;;;;;9.10;6.03;;;;;;;-0.27;81.17;99795.31;1681974;82;20949;-75
2022/12/12 05:23:53;;;;;;;10.53;6.70;;;;;;;-0.27;81.17;99794.91;1675708;82;20976;-75
2022/12/12 05:26:38;;;;;;;7.28;5.65;;;;;;;-0.26;81.16;99790.27;1677366;82;20981;-75
2022/12/12 05:29:23;;;;;;;8.75;6.42;;;;;;;-0.26;81.17;99797.88;1678519;83;20922;-75
2022/12/12 05:32:08;;;;;;;10.00;6.47;;;;;;;-0.26;81.18;99794.48;1678381;83;21053;-75
2022/12/12 05:34:53;;;;;;;11.50;6.55;;;;;;;-0.26;81.19;99793.22;1676438;84;21008;-75
2022/12/12 05:37:38;;;;;;;12.10;7.15;;;;;;;-0.28;81.16;99791.92;1674390;83;20957;-77
2022/12/12 05:40:23;;;;;;;9.90;7.50;;;;;;;-0.28;81.21;99788.53;1677854;83;20925;-76
2022/12/12 05:43:08;;;;;;;9.45;6.20;;;;;;;-0.28;81.20;99791.07;1675983;83;20929;-76
2022/12/12 05:45:53;;;;;;;11.08;6.80;;;;;;;-0.29;81.23;99795.71;1677417;82;20945;-76
2022/12/12 05:48:38;;;;;;;8.93;6.22;;;;;;;-0.29;81.26;99792.76;1674959;83;20910;-76
2022/12/12 05:51:22;;;;;;;11.48;7.62;;;;;;;-0.29;81.25;99792.76;1674929;83;21419;-75
2022/12/12 05:54:08;;;;;;;10.72;7.42;;;;;;;-0.30;81.27;99801.20;1679783;82;20988;-75
2022/12/12 05:56:54;;;;;;;9.55;6.75;;;;;;;-0.30;81.28;99797.40;1676720;83;20997;-75
2022/12/12 05:59:38;;;;;;;9.15;6.08;;;;;;;-0.30;81.29;99799.94;1682089;82;20993;-76
2022/12/12 06:02:23;;;;;;;9.10;6.47;;;;;;;-0.28;81.27;99803.77;1728423;80;20962;-76
2022/12/12 06:05:09;;;;;;;9.28;6.25;;;;;;;-0.30;81.29;99810.09;1729363;80;21606;-75
2022/12/12 06:07:54;;;;;;;9.63;6.20;;;;;;;-0.29;81.33;99813.08;1726958;80;20992;-76
2022/12/12 06:10:39;;;;;;;9.58;6.95;;;;;;;-0.29;81.35;99804.19;1728566;80;21544;-75
2022/12/12 06:13:24;;;;;;;8.38;6.17;;;;;;;-0.30;81.34;99810.09;1728448;80;21823;-76
2022/12/12 06:16:14;;;;;;;9.40;5.90;;;;;;;-0.31;81.31;99809.66;1729004;80;20956;-75
2022/12/12 06:18:58;;;;;;;8.88;6.10;;;;;;;-0.30;81.36;99816.86;1727555;80;21532;-76
2022/12/12 06:21:44;;;;;;;10.60;6.03;;;;;;;-0.28;81.38;99835.52;1730308;80;21382;-76
2022/12/12 06:24:28;;;;;;;8.53;6.22;;;;;;;-0.28;81.38;99821.14;1727252;80;21044;-76
2022/12/12 06:27:13;;;;;;;9.93;6.10;;;;;;;-0.27;81.38;99819.03;1729057;80;20965;-75
2022/12/12 06:29:58;;;;;;;11.80;6.12;;;;;;;-0.27;81.37;99821.58;1728162;80;21326;-76
2022/12/12 06:32:44;;;;;;;11.33;6.90;;;;;;;-0.25;81.38;99824.99;1730554;80;21015;-76
2022/12/12 06:35:29;;;;;;;10.50;6.80;;;;;;;-0.25;81.40;99826.27;1730586;80;21512;-75
2022/12/12 06:38:14;;;;;;;8.98;5.62;;;;;;;-0.25;81.43;99824.99;1730063;80;21294;-75
2022/12/12 06:40:59;;;;;;;10.43;6.37;;;;;;;-0.23;81.41;99832.22;1729976;80;20913;-80
2022/12/12 06:43:44;;;;;;;8.85;6.20;;;;;;;-0.25;81.40;99826.27;1731524;80;21416;-76
2022/12/12 06:46:30;;;;;;;10.20;6.60;;;;;;;-0.24;81.44;99820.34;1727192;80;21509;-76
2022/12/12 06:49:15;;;;;;;8.35;5.87;;;;;;;-0.25;81.44;99822.87;1726657;80;21032;-76
2022/12/12 06:52:00;;;;;;;10.20;6.70;;;;;;;-0.25;81.44;99830.08;1726276;80;20961;-76
2022/12/12 06:54:45;;;;;;;7.75;5.50;;;;;;;-0.23;81.45;99827.55;1727664;80;20957;-76
2022/12/12 06:57:30;;;;;;;10.97;6.33;;;;;;;-0.25;81.47;99814.83;1724318;80;20909;-76
2022/12/12 07:00:16;;;;;;;8.63;5.22;;;;;;;-0.24;81.50;99822.03;1729477;80;21404;-76
2022/12/12 07:03:01;;;;;;;7.05;5.50;;;;;;;-0.24;81.46;99816.54;1729226;80;21544;-76
2022/12/12 07:05:46;;;;;;;9.78;5.60;;;;;;;-0.24;81.49;99820.34;1726140;80;20910;-76
2022/12/12 07:08:33;;;;;;;9.15;6.65;;;;;;;-0.25;81.48;99819.91;1726763;80;21499;-76
2022/12/12 07:11:22;;;;;;;7.08;5.70;;;;;;;-0.23;81.53;99822.47;1724169;80;21385;-76
2022/12/12 07:14:08;;;;;;;9.68;5.42;;;;;;;-0.22;81.51;99821.64;1726998;80;20969;-76
2022/12/12 07:16:53;;;;;;;8.60;5.42;;;;;;;-0.23;81.52;99819.52;1727566;80;26744;-76
2022/12/12 07:19:38;;;;;;;8.43;6.03;;;;;;;-0.22;81.52;99827.99;1725143;80;21527;-75
2022/12/12 07:22:23;;;;;;;9.45;6.30;;;;;;;-0.22;81.54;99831.80;1725611;80;21561;-76
2022/12/12 07:25:08;;;;;;;8.83;6.55;;;;;;;-0.19;81.58;99830.16;1725156;80;21378;-75
2022/12/12 07:27:53;;;;;;;8.10;5.80;;;;;;;-0.18;81.57;99834.41;1725215;80;20902;-76
2022/12/12 07:30:40;;;;;;;7.45;5.72;;;;;;;-0.17;81.57;99830.19;1727219;80;20961;-76
2022/12/12 07:33:25;;;;;;;8.08;5.30;;;;;;;-0.15;81.62;99828.11;1728045;80;21413;-76
2022/12/12 07:36:11;;;;;;;8.08;6.80;;;;;;;-0.13;81.61;99834.48;1727460;80;20909;-76
2022/12/12 07:38:56;;;;;;;9.93;7.50;;;;;;;-0.12;81.63;99835.77;1726136;79;24988;-75
2022/12/12 07:41:41;;;;;;;7.72;5.60;;;;;;;-0.08;81.67;99841.75;1725667;80;21524;-76
2022/12/12 07:44:26;;;;;;;12.85;6.58;;;;;;;-0.07;81.69;99832.03;1724495;80;21005;-76
2022/12/12 07:47:11;;;;;;;8.83;5.42;;;;;;;-0.05;81.68;99832.48;1725498;80;21450;-76
2022/12/12 07:49:56;;;;;;;7.67;5.35;;;;;;;-0.03;81.65;99833.78;1725340;80;20945;-76
2022/12/12 07:52:41;;;;;;;8.23;5.15;;;;;;;-0.02;81.62;99835.07;1727396;80;21024;-76
2022/12/12 07:55:26;;;;;;;9.03;5.83;;;;;;;-0.02;81.65;99834.22;1726829;80;20913;-75
2022/12/12 07:58:11;;;;;;;8.93;5.47;;;;;;;-0.01;81.68;99832.11;1725987;80;21442;-76
2022/12/12 08:00:56;;;;;;;9.98;5.40;;;;;;;0.00;81.72;99837.19;1725156;80;20933;-76
2022/12/12 08:03:42;;;;;;;7.12;5.55;;;;;;;0.03;81.73;99840.60;1718684;81;20996;-76
2022/12/12 08:06:27;;;;;;;6.67;4.53;;;;;;;0.04;81.75;99837.23;1715695;80;21022;-76
2022/12/12 08:09:12;;;;;;;6.42;4.90;;;;;;;0.04;81.79;99839.36;1717523;81;21561;-76
2022/12/12 08:11:58;;;;;;;7.10;4.45;;;;;;;0.07;81.80;99845.75;1719061;82;21150;-76
2022/12/12 08:14:43;;;;;;;8.83;5.15;;;;;;;0.09;81.79;99843.23;1716607;81;21541;-76
2022/12/12 08:17:28;;;;;;;9.20;4.85;;;;;;;0.11;81.84;99841.15;1718137;82;21731;-76
2022/12/12 08:20:13;;;;;;;8.38;4.25;;;;;;;0.17;81.83;99854.36;1717010;82;21443;-76
2022/12/12 08:22:58;;;;;;;6.87;4.55;;;;;;;0.18;81.83;99840.40;1716581;82;21489;-76
2022/12/12 08:25:43;;;;;;;7.40;4.83;;;;;;;0.22;81.85;99842.56;1717324;82;20890;-76
2022/12/12 08:28:28;;;;;;;5.60;4.60;;;;;;;0.24;81.86;99840.48;1717440;81;20902;-76
2022/12/12 08:31:15;;;;;;;6.28;4.53;;;;;;;0.28;81.86;99845.19;1718953;81;21411;-76
2022/12/12 08:34:01;;;;;;;8.50;4.55;;;;;;;0.30;81.87;99842.25;1717341;82;20909;-76
2022/12/12 08:36:46;;;;;;;6.37;3.95;;;;;;;0.33;81.87;99843.56;1718758;81;20905;-76
2022/12/12 08:39:31;;;;;;;5.73;3.90;;;;;;;0.35;81.89;99843.16;1719792;81;20941;-76
2022/12/12 08:42:16;;;;;;;6.67;4.17;;;;;;;0.38;81.88;99848.28;1718564;80;20972;-76
2022/12/12 08:45:01;;;;;;;5.57;4.50;;;;;;;0.41;81.93;99844.52;1718226;80;21303;-76
2022/12/12 08:47:46;;;;;;;7.78;4.47;;;;;;;0.47;81.95;99843.31;1718483;81;21509;-76
2022/12/12 08:50:31;;;;;;;5.83;3.62;;;;;;;0.50;81.89;99841.23;1715039;82;20938;-76
2022/12/12 08:53:16;;;;;;;4.60;3.87;;;;;;;0.54;81.97;99839.98;1717981;80;20905;-76
2022/12/12 08:56:01;;;;;;;6.80;4.30;;;;;;;0.60;81.94;99840.05;1717715;82;21605;-76
2022/12/12 08:58:47;;;;;;;5.70;4.03;;;;;;;0.64;81.92;99837.12;1719153;80;20918;-76
2022/12/12 09:01:31;;;;;;;6.67;3.43;;;;;;;0.68;81.92;99839.28;1705902;80;20945;-76
2022/12/12 09:04:16;;;;;;;5.83;4.05;;;;;;;0.73;81.94;99842.73;1726513;80;20949;-76
2022/12/12 09:07:02;;;;;;;6.20;3.83;;;;;;;0.75;81.91;99841.92;1724313;79;20974;-76
2022/12/12 09:09:46;;;;;;;5.83;4.00;;;;;;;0.77;81.89;99836.84;1722281;79;20977;-76
2022/12/12 09:12:32;;;;;;;5.15;3.45;;;;;;;0.79;81.93;99842.39;1722666;80;21646;-76
2022/12/12 09:15:17;;;;;;;6.37;3.62;;;;;;;0.82;81.90;99847.51;1723817;80;20953;-75
2022/12/12 09:18:01;;;;;;;5.42;3.40;;;;;;;0.85;81.93;99850.09;1720657;80;21312;-76
2022/12/12 09:20:52;;;;;;;5.45;3.47;;;;;;;0.87;81.92;99845.87;1722265;80;20948;-76
2022/12/12 09:23:37;;;;;;;5.22;2.98;;;;;;;0.88;81.92;99847.58;1723666;80;21472;-76
2022/12/12 09:26:22;;;;;;;4.22;3.55;;;;;;;0.91;81.94;99849.30;1719972;80;21939;-76
2022/12/12 09:29:09;;;;;;;4.33;3.15;;;;;;;0.91;81.93;99848.03;1722747;80;21449;-75
2022/12/12 09:31:53;;;;;;;6.05;3.95;;;;;;;0.92;81.92;99844.65;1723078;80;21563;-76
2022/12/12 09:34:38;;;;;;;4.55;3.47;;;;;;;0.91;81.93;99846.34;1724107;80;20894;-75
2022/12/12 09:37:23;;;;;;;4.92;3.67;;;;;;;0.92;81.95;99842.10;1723964;80;20953;-75
2022/12/12 09:40:14;;;;;;;4.70;2.98;;;;;;;0.92;81.92;99848.05;1721627;80;20903;-75
2022/12/12 09:42:59;;;;;;;4.55;3.45;;;;;;;0.95;81.92;99850.63;1723234;80;21516;-76
2022/12/12 09:45:44;;;;;;;3.50;2.83;;;;;;;0.98;81.95;99849.80;1721827;80;20906;-76
2022/12/12 09:48:43;;;;;;;4.12;3.37;;;;;;;0.99;81.95;99848.55;1723894;80;21695;-76
2022/12/12 09:51:28;;;;;;;3.67;2.90;;;;;;;1.02;81.94;99850.69;1721963;80;20977;-76
2022/12/12 09:54:17;;;;;;;4.62;2.90;;;;;;;1.03;81.94;99860.03;1721117;80;21017;-76
2022/12/12 09:57:43;;;;;;;5.17;3.20;;;;;;;1.04;81.95;99860.02;1715176;81;20933;-76
2022/12/12 10:00:33;;;;;;;4.53;2.90;;;;;;;1.05;81.87;99859.17;1709575;81;21751;-76
2022/12/12 10:03:45;;;;;;;5.20;3.10;;;;;;;1.12;81.92;99860.95;1703093;81;20989;-76
2022/12/12 10:06:44;;;;;;;4.08;2.83;;;;;;;1.17;81.94;99854.20;1696228;82;21105;-76
2022/12/12 10:10:01;;;;;;;4.85;3.40;;;;;;;1.21;81.91;99849.58;1688641;82;20997;-76
2022/12/12 10:12:47;;;;;;;6.33;2.90;;;;;;;1.25;81.89;99850.46;1701444;82;21066;-75
2022/12/12 10:15:36;;;;;;;;;;;;;;;1.28;81.96;99844.98;1705389;82;21399;-76
2022/12/12 10:18:34;;;;;;;4.28;2.62;;;;;;;1.33;81.84;99846.30;1704005;82;20511;-76
2022/12/12 10:21:26;;;;;;;2.85;2.40;;;;;;;1.38;81.93;99852.70;1706606;82;21005;-76
2022/12/12 10:24:18;;;;;;;2.85;2.47;;;;;;;1.43;81.93;99847.23;1708759;82;21465;-76
2022/12/12 10:27:12;;;;;;;6.40;3.58;;;;;;;1.44;81.85;99847.23;1705393;82;21089;-76
2022/12/12 10:30:03;;;;;;;4.80;2.75;;;;;;;1.43;81.82;99845.95;1708833;82;20960;-76
2022/12/12 10:33:11;;;;;;;4.28;2.47;;;;;;;1.40;81.71;99850.60;1728075;80;20973;-76
2022/12/12 10:36:49;;;;;;;4.97;2.62;;;;;;;1.43;81.89;99848.50;1727506;80;20994;-75
2022/12/12 10:39:58;;;;;;;4.90;2.12;;;;;;;1.47;81.89;99850.23;1728823;80;21294;-79
2022/12/12 10:43:15;;;;;;;3.85;2.27;;;;;;;1.48;81.83;99848.13;1730633;80;21504;-76
2022/12/12 10:46:17;;;;;;;3.62;2.70;;;;;;;1.53;81.89;99857.93;1729718;79;20981;-76
2022/12/12 10:49:05;;;;;;;2.72;2.10;;;;;;;1.55;81.89;99852.42;1727586;80;21851;-76
2022/12/12 10:51:51;;;;;;;2.67;2.08;;;;;;;1.58;81.84;99844.78;1728519;80;20917;-76
2022/12/12 10:54:42;;;;;;;3.50;3.02;;;;;;;1.58;81.71;99856.24;1730092;80;20909;-76
2022/12/12 10:57:35;;;;;;;3.75;2.30;;;;;;;1.57;81.81;99851.98;1728786;80;20897;-76
2022/12/12 11:00:37;;;;;;;3.87;2.37;;;;;;;1.57;81.78;99843.06;1729214;80;21509;-76
2022/12/12 11:03:30;;;;;;;3.67;2.67;;;;;;;1.58;81.79;99848.17;1715508;80;20961;-76
2022/12/12 11:06:22;;;;;;;4.20;2.20;;;;;;;1.60;81.83;99848.19;1716481;81;21435;-78
2022/12/12 11:09:26;;;;;;;6.05;3.10;;;;;;;1.61;81.76;99839.70;1717611;81;21814;-76
2022/12/12 11:12:15;;;;;;;5.33;2.42;;;;;;;1.61;81.74;99839.28;1720282;80;21426;-75
2022/12/12 11:15:13;;;;;;;2.77;2.30;;;;;;;1.63;81.78;99832.50;1718537;80;21356;-76
2022/12/12 11:17:58;;;;;;;2.37;2.00;;;;;;;1.63;81.68;99828.69;1707384;82;21540;-76
2022/12/12 11:21:06;;;;;;;2.75;2.02;;;;;;;1.61;81.69;99852.02;1717034;81;21037;-76
2022/12/12 11:23:56;;;;;;;2.10;1.70;;;;;;;1.59;81.65;99853.70;1717742;80;21296;-76
2022/12/12 11:26:57;;;;;;;3.25;2.10;;;;;;;1.57;81.64;99849.02;1716692;82;21327;-76
2022/12/12 11:29:50;;;;;;;3.05;1.50;;;;;;;1.56;81.69;99844.77;1603405;80;10000534;-76
2022/12/12 11:32:45;;;;;;;5.30;1.75;;;;;;;1.57;81.67;99840.52;1708620;82;21398;-76
2022/12/12 11:35:39;;;;;;;1.52;1.10;;;;;;;1.56;81.67;99843.94;1717272;82;20981;-76
2022/12/12 11:38:39;;;;;;;2.00;1.47;;;;;;;1.56;81.65;99838.39;1717516;81;20958;-76
2022/12/12 11:41:24;;;;;;;2.00;1.80;;;;;;;1.55;81.63;99844.78;1718194;80;21311;-76
2022/12/12 11:44:12;;;;;;;2.98;1.60;;;;;;;1.54;81.63;99840.53;1720106;81;21394;-76
2022/12/12 11:47:19;;;;;;;2.85;1.47;;;;;;;1.53;81.64;99840.95;1703869;81;20961;-76
2022/12/12 11:50:21;;;;;;;2.30;1.80;;;;;;;1.52;81.56;99844.34;1717608;81;21018;-76
2022/12/12 11:53:07;;;;;;;2.75;1.98;;;;;;;1.52;81.48;99839.66;1715749;81;21403;-76
2022/12/12 11:56:01;;;;;;;3.00;2.10;;;;;;;1.52;81.62;99838.39;1718420;82;20937;-76
2022/12/12 11:58:57;;;;;;;3.72;2.40;;;;;;;1.52;81.55;99857.50;1693570;81;21025;-76
2022/12/12 12:02:18;;;;;;;3.47;1.87;;;;;;;1.50;81.54;99850.26;1718409;81;21497;-76
2022/12/12 12:05:29;;;;;;;2.50;1.98;;;;;;;1.46;81.51;99846.83;1715049;81;21025;-76
2022/12/12 12:08:58;;;;;;;3.55;2.17;;;;;;;1.48;81.56;99850.67;1719532;82;21387;-77
2022/12/12 12:12:14;;;;;;;3.83;2.65;;;;;;;1.49;81.55;99853.23;1713862;81;21562;-76
2022/12/12 12:15:39;;;;;;;4.85;3.87;;;;;;;1.51;81.54;99843.05;1715563;81;21404;-76
2022/12/12 12:18:50;;;;;;;4.30;2.50;;;;;;;1.50;81.54;99843.47;1718446;81;20942;-76
2022/12/12 12:21:56;;;;;;;3.60;1.92;;;;;;;1.49;81.49;99844.31;1718142;81;21902;-76
2022/12/12 12:24:48;;;;;;;3.47;2.05;;;;;;;1.50;81.52;99833.70;1692175;81;22608;-76
2022/12/12 12:28:03;;;;;;;2.72;1.92;;;;;;;1.49;81.44;99844.73;1715862;81;20890;-76
2022/12/12 12:31:20;;;;;;;2.67;1.62;;;;;;;1.48;81.44;99844.30;1718390;79;21513;-76
2022/12/12 12:34:33;;;;;;;3.00;1.65;;;;;;;1.44;81.37;99837.47;1719573;82;20964;-76
2022/12/12 12:37:38;;;;;;;3.40;1.80;;;;;;;1.42;81.40;99828.97;1717231;81;20878;-76
2022/12/12 12:40:43;;;;;;;4.87;1.87;;;;;;;1.40;81.39;99831.92;1718583;80;20886;-76
2022/12/12 12:43:53;;;;;;;4.20;2.10;;;;;;;1.39;81.39;99825.12;1716649;81;20921;-76
2022/12/12 12:47:15;;;;;;;2.52;1.77;;;;;;;1.38;81.37;99819.59;1718723;81;20902;-76
2022/12/12 12:50:20;;;;;;;4.70;1.92;;;;;;;1.35;81.29;99834.84;1718045;82;21024;-76
2022/12/12 12:53:28;;;;;;;2.25;1.32;;;;;;;1.32;81.32;99836.95;1719406;81;21474;-76
2022/12/12 12:56:30;;;;;;;3.05;1.67;;;;;;;1.31;81.32;99836.52;1715008;81;21247;-76
2022/12/12 12:59:20;;;;;;;2.55;1.87;;;;;;;1.31;81.26;99850.52;1718477;80;20986;-76
2022/12/12 13:02:26;;;;;;;2.15;1.47;;;;;;;1.30;81.28;99844.57;1716567;81;20957;-76
2022/12/12 13:05:37;;;;;;;2.60;1.85;;;;;;;1.30;81.24;99847.12;1716337;82;21438;-76
2022/12/12 13:08:27;;;;;;;2.20;1.72;;;;;;;1.30;81.24;99844.57;1714455;81;20961;-76
2022/12/12 13:11:23;;;;;;;2.83;2.20;;;;;;;1.29;81.22;99840.31;1717830;82;20941;-76
2022/12/12 13:14:22;;;;;;;2.85;1.75;;;;;;;1.30;81.20;99836.93;1720339;81;21926;-76
2022/12/12 13:17:12;;;;;;;2.90;1.90;;;;;;;1.31;81.21;99836.52;1717727;81;21499;-76
2022/12/12 13:19:58;;;;;;;2.42;1.90;;;;;;;1.31;81.20;99844.16;1719807;81;20917;-76
2022/12/12 13:23:15;;;;;;;3.40;2.52;;;;;;;1.30;81.19;99841.17;1718708;82;21398;-76
2022/12/12 13:26:28;;;;;;;2.83;1.90;;;;;;;1.28;81.17;99828.84;1716982;80;20945;-76
2022/12/12 13:29:36;;;;;;;3.27;2.12;;;;;;;1.25;81.08;99841.55;1716853;82;21363;-76
2022/12/12 13:32:58;;;;;;;4.62;1.82;;;;;;;1.20;81.04;99844.05;1718843;80;21418;-76
2022/12/12 13:35:47;;;;;;;2.35;1.60;;;;;;;1.15;81.03;99843.58;1718162;81;21782;-76
2022/12/12 13:38:34;;;;;;;2.77;2.20;;;;;;;1.10;81.02;99848.63;1715707;81;20910;-76
2022/12/12 13:41:19;;;;;;;1.77;1.42;;;;;;;1.07;81.05;99848.59;1718749;81;20925;-76